createdAt,value
2023-05-04T00:00:47.104Z,10.30
2023-05-04T00:03:15.305Z,10.40
2023-05-04T00:05:43.686Z,10.50
2023-05-04T00:08:11.907Z,10.20
2023-05-04T00:10:40.083Z,10.20
2023-05-04T00:13:08.276Z,10.30
2023-05-04T00:15:36.542Z,9.90
2023-05-04T00:18:06.079Z,10.20
2023-05-04T00:20:34.227Z,10.30
2023-05-04T00:23:02.457Z,10.10
2023-05-04T00:25:30.684Z,10.10
2023-05-04T00:28:01.891Z,10.10
2023-05-04T00:30:29.989Z,10.10
2023-05-04T00:32:58.425Z,10.10
2023-05-04T00:35:28.014Z,9.90
2023-05-04T00:37:56.611Z,9.90
2023-05-04T00:40:25.174Z,9.80
2023-05-04T00:42:53.369Z,9.80
2023-05-04T00:45:21.787Z,10.40
2023-05-04T00:47:52.125Z,9.80
2023-05-04T00:50:21.290Z,9.80
2023-05-04T00:52:51.990Z,9.70
2023-05-04T00:55:21.198Z,9.70
2023-05-04T00:57:50.448Z,9.60
2023-05-04T01:00:19.153Z,9.60
2023-05-04T01:02:47.222Z,9.60
2023-05-04T01:05:15.537Z,9.60
2023-05-04T01:07:53.573Z,9.50
2023-05-04T01:10:28.526Z,9.50
2023-05-04T01:13:02.123Z,9.50
2023-05-04T01:15:30.964Z,9.70
2023-05-04T01:17:59.271Z,9.70
2023-05-04T01:20:27.608Z,9.50
2023-05-04T01:22:57.584Z,9.40
2023-05-04T01:25:31.994Z,9.40
2023-05-04T01:28:08.333Z,9.50
2023-05-04T01:30:39.518Z,9.40
2023-05-04T01:33:08.117Z,9.40
2023-05-04T01:35:38.663Z,9.40
2023-05-04T01:38:08.536Z,9.40
2023-05-04T01:40:36.849Z,9.60
2023-05-04T01:43:05.140Z,9.30
2023-05-04T01:45:33.496Z,9.30
2023-05-04T01:48:01.978Z,9.40
2023-05-04T01:50:30.282Z,9.40
2023-05-04T01:52:58.618Z,9.20
2023-05-04T01:55:30.272Z,9.20
2023-05-04T01:57:58.540Z,9.20
2023-05-04T02:00:28.938Z,9.20
2023-05-04T02:02:57.324Z,9.20
2023-05-04T02:05:25.621Z,9.20
2023-05-04T02:07:54.412Z,9.20
2023-05-04T02:10:22.746Z,9.20
2023-05-04T02:12:52.774Z,9.30
2023-05-04T02:15:24.088Z,9.10
2023-05-04T02:17:52.275Z,9.10
2023-05-04T02:20:20.609Z,9.10
2023-05-04T02:22:48.789Z,9.10
2023-05-04T02:25:17.755Z,9.10
2023-05-04T02:27:45.824Z,9.30
2023-05-04T02:30:16.564Z,9.20
2023-05-04T02:32:44.800Z,9.10
2023-05-04T02:35:13.658Z,9.30
2023-05-04T02:37:41.788Z,9.20
2023-05-04T02:40:11.651Z,9.20
2023-05-04T02:42:39.739Z,9.10
2023-05-04T02:45:09.182Z,9.20
2023-05-04T02:47:38.960Z,9.00
2023-05-04T02:50:08.786Z,9.10
2023-05-04T02:52:38.464Z,9.00
2023-05-04T02:55:07.424Z,9.10
2023-05-04T02:57:35.721Z,9.10
2023-05-04T03:00:07.185Z,9.00
2023-05-04T03:02:35.732Z,9.00
2023-05-04T03:05:06.460Z,8.90
2023-05-04T03:07:34.885Z,8.90
2023-05-04T03:10:05.418Z,8.90
2023-05-04T03:12:33.659Z,8.90
2023-05-04T03:15:01.925Z,8.90
2023-05-04T03:17:30.111Z,8.80
2023-05-04T03:20:00.880Z,8.80
2023-05-04T03:22:30.535Z,8.70
2023-05-04T03:24:58.792Z,8.70
2023-05-04T03:27:27.009Z,8.70
2023-05-04T03:29:55.588Z,8.70
2023-05-04T03:32:24.979Z,8.90
2023-05-04T03:34:53.279Z,8.80
2023-05-04T03:37:21.371Z,8.60
2023-05-04T03:39:54.887Z,8.80
2023-05-04T03:42:23.396Z,8.60
2023-05-04T03:44:51.462Z,8.50
2023-05-04T03:47:19.610Z,8.50
2023-05-04T03:49:47.723Z,8.50
2023-05-04T03:52:15.833Z,8.40
2023-05-04T03:54:44.470Z,8.30
2023-05-04T03:57:14.068Z,8.60
2023-05-04T03:59:42.472Z,8.50
2023-05-04T04:02:10.485Z,8.30
2023-05-04T04:04:38.737Z,8.40
2023-05-04T04:07:09.079Z,8.60
2023-05-04T04:09:37.244Z,8.40
2023-05-04T04:12:05.602Z,8.50
2023-05-04T04:14:35.081Z,8.40
2023-05-04T04:17:03.297Z,8.40
2023-05-04T04:19:33.221Z,8.40
2023-05-04T04:22:01.640Z,8.70
2023-05-04T04:24:29.790Z,8.50
2023-05-04T04:26:57.992Z,8.40
2023-05-04T04:29:26.435Z,8.30
2023-05-04T04:31:59.221Z,8.30
2023-05-04T04:34:27.344Z,8.30
2023-05-04T04:36:55.536Z,8.30
2023-05-04T04:39:23.732Z,8.30
2023-05-04T04:41:51.982Z,8.30
2023-05-04T04:44:21.054Z,8.40
2023-05-04T04:46:49.429Z,8.30
2023-05-04T04:49:19.100Z,8.50
2023-05-04T04:51:49.025Z,8.30
2023-05-04T04:54:17.738Z,8.30
2023-05-04T04:56:46.355Z,8.30
2023-05-04T04:59:16.696Z,8.30
2023-05-04T05:01:44.964Z,8.30
2023-05-04T05:04:13.129Z,8.30
2023-05-04T05:06:44.568Z,8.30
2023-05-04T05:09:13.644Z,8.30
2023-05-04T05:11:41.764Z,8.40
2023-05-04T05:14:10.300Z,8.40
2023-05-04T05:16:38.366Z,8.40
2023-05-04T05:19:06.418Z,8.70
2023-05-04T05:21:34.438Z,8.90
2023-05-04T05:24:04.071Z,8.60
2023-05-04T05:26:32.246Z,8.60
2023-05-04T05:29:00.365Z,8.70
2023-05-04T05:31:28.622Z,8.90
2023-05-04T05:33:56.700Z,8.80
2023-05-04T05:36:24.838Z,9.10
2023-05-04T05:38:53.151Z,9.00
2023-05-04T05:41:22.703Z,9.00
2023-05-04T05:43:50.963Z,9.00
2023-05-04T05:46:19.627Z,9.00
2023-05-04T05:48:47.728Z,9.10
2023-05-04T05:51:15.778Z,9.10
2023-05-04T05:53:44.961Z,9.20
2023-05-04T05:56:13.430Z,9.20
2023-05-04T05:58:43.387Z,9.50
2023-05-04T06:01:13.948Z,9.50
2023-05-04T06:03:45.257Z,9.30
2023-05-04T06:06:13.693Z,9.40
2023-05-04T06:08:42.204Z,9.70
2023-05-04T06:11:10.543Z,9.60
2023-05-04T06:13:39.040Z,9.70
2023-05-04T06:16:08.960Z,9.80
2023-05-04T06:18:37.435Z,9.70
2023-05-04T06:21:05.743Z,9.90
2023-05-04T06:23:34.170Z,9.80
2023-05-04T06:26:02.621Z,9.90
2023-05-04T06:28:30.807Z,10.00
2023-05-04T06:30:59.009Z,10.20
2023-05-04T06:33:29.007Z,10.20
2023-05-04T06:35:57.934Z,10.50
2023-05-04T06:38:26.040Z,10.50
2023-05-04T06:40:54.228Z,10.50
2023-05-04T06:43:22.368Z,10.70
2023-05-04T06:45:50.471Z,10.60
2023-05-04T06:48:18.707Z,10.60
2023-05-04T06:50:48.387Z,10.60
2023-05-04T06:53:16.814Z,10.70
2023-05-04T06:55:45.156Z,10.70
2023-05-04T06:58:13.305Z,10.90
2023-05-04T07:00:43.695Z,11.00
2023-05-04T07:03:11.972Z,11.20
2023-05-04T07:05:40.341Z,11.40
2023-05-04T07:08:10.366Z,11.30
2023-05-04T07:10:38.710Z,11.50
2023-05-04T07:13:07.072Z,11.60
2023-05-04T07:15:38.050Z,11.70
2023-05-04T07:18:06.418Z,12.00
2023-05-04T07:20:34.531Z,12.00
2023-05-04T07:23:02.834Z,12.10
2023-05-04T07:25:35.641Z,12.10
2023-05-04T07:28:04.247Z,12.10
2023-05-04T07:30:32.630Z,12.10
2023-05-04T07:33:01.373Z,12.20
2023-05-04T07:35:29.388Z,12.20
2023-05-04T07:37:58.015Z,12.50
2023-05-04T07:40:26.747Z,12.40
2023-05-04T07:42:56.861Z,12.60
2023-05-04T07:45:25.044Z,12.60
2023-05-04T07:47:53.301Z,12.70
2023-05-04T07:50:21.638Z,12.70
2023-05-04T07:52:49.768Z,12.70
2023-05-04T07:55:18.937Z,12.90
2023-05-04T07:57:47.042Z,13.10
2023-05-04T08:00:18.620Z,13.20
2023-05-04T08:02:47.160Z,13.20
2023-05-04T08:05:15.318Z,13.20
2023-05-04T08:07:43.542Z,13.30
2023-05-04T08:10:12.124Z,13.20
2023-05-04T08:12:41.911Z,13.40
2023-05-04T08:15:11.569Z,13.20
2023-05-04T08:17:42.566Z,13.50
2023-05-04T08:20:11.665Z,13.50
2023-05-04T08:22:39.917Z,13.50
2023-05-04T08:25:11.904Z,13.50
2023-05-04T08:27:40.512Z,13.60
2023-05-04T08:30:10.180Z,13.60
2023-05-04T08:32:38.296Z,13.70
2023-05-04T08:35:08.248Z,13.80
2023-05-04T08:37:36.828Z,13.70
2023-05-04T08:40:06.044Z,13.80
2023-05-04T08:42:34.976Z,13.90
2023-05-04T08:45:04.747Z,14.00
2023-05-04T08:47:36.175Z,14.20
2023-05-04T08:50:04.724Z,14.30
2023-05-04T08:52:34.296Z,14.30
2023-05-04T08:55:03.449Z,14.40
2023-05-04T08:57:32.457Z,14.50
2023-05-04T09:00:01.836Z,14.70
2023-05-04T09:02:31.406Z,14.80
2023-05-04T09:04:59.905Z,14.80
2023-05-04T09:07:28.691Z,15.00
2023-05-04T09:09:59.367Z,15.30
2023-05-04T09:12:28.273Z,15.30
2023-05-04T09:14:56.666Z,15.50
2023-05-04T09:17:27.931Z,15.60
2023-05-04T09:19:59.941Z,15.50
2023-05-04T09:22:29.113Z,15.70
2023-05-04T09:25:11.732Z,15.90
2023-05-04T09:27:41.505Z,16.00
2023-05-04T09:30:11.533Z,16.10
2023-05-04T09:32:47.375Z,16.30
2023-05-04T09:35:29.323Z,16.40
2023-05-04T09:38:01.141Z,16.50
2023-05-04T09:40:36.388Z,16.50
2023-05-04T09:43:04.783Z,16.70
2023-05-04T09:45:42.975Z,16.80
2023-05-04T09:48:19.171Z,17.00
2023-05-04T09:50:52.145Z,17.20
2023-05-04T09:53:21.595Z,17.30
2023-05-04T09:56:11.863Z,17.40
2023-05-04T09:58:40.786Z,17.40
2023-05-04T10:01:11.848Z,17.70
2023-05-04T10:03:43.242Z,18.00
2023-05-04T10:06:12.330Z,18.20
2023-05-04T10:08:41.825Z,18.30
2023-05-04T10:11:11.461Z,18.60
2023-05-04T10:13:39.585Z,18.40
2023-05-04T10:16:19.408Z,18.40
2023-05-04T10:19:02.867Z,18.30
2023-05-04T10:21:45.363Z,18.50
2023-05-04T10:24:27.344Z,18.70
2023-05-04T10:27:08.920Z,19.00
2023-05-04T10:29:38.419Z,19.20
2023-05-04T10:32:08.026Z,19.10
2023-05-04T10:34:37.131Z,19.30
2023-05-04T10:37:05.453Z,19.50
2023-05-04T10:39:36.394Z,19.60
2023-05-04T10:42:07.361Z,19.80
2023-05-04T10:44:51.352Z,19.80
2023-05-04T10:47:29.749Z,19.90
2023-05-04T10:50:05.373Z,20.20
2023-05-04T10:52:34.000Z,20.40
2023-05-04T10:55:04.286Z,20.50
2023-05-04T10:57:34.266Z,20.50
2023-05-04T11:00:02.409Z,20.60
2023-05-04T11:02:33.088Z,20.60
2023-05-04T11:05:04.386Z,20.70
2023-05-04T11:07:37.886Z,20.80
2023-05-04T11:10:08.353Z,21.00
2023-05-04T11:12:39.474Z,21.10
2023-05-04T11:15:13.069Z,21.10
2023-05-04T11:17:47.938Z,21.20
2023-05-04T11:20:31.802Z,21.40
2023-05-04T11:23:00.094Z,21.60
2023-05-04T11:25:28.770Z,21.40
2023-05-04T11:27:59.888Z,21.20
2023-05-04T11:30:37.854Z,21.20
2023-05-04T11:33:15.633Z,21.30
2023-05-04T11:35:44.820Z,21.20
2023-05-04T11:38:18.672Z,21.40
2023-05-04T11:40:49.428Z,21.50
2023-05-04T11:43:22.566Z,21.60
2023-05-04T11:45:54.969Z,21.60
2023-05-04T11:48:23.920Z,21.80
2023-05-04T11:50:52.310Z,21.80
2023-05-04T11:53:22.689Z,21.90
2023-05-04T11:55:52.420Z,21.80
2023-05-04T11:58:26.908Z,22.10
2023-05-04T12:00:59.245Z,22.10
2023-05-04T12:03:39.657Z,22.30
2023-05-04T12:06:11.837Z,22.30
2023-05-04T12:08:42.537Z,22.40
2023-05-04T12:11:13.523Z,22.50
2023-05-04T12:13:44.409Z,22.60
2023-05-04T12:16:16.112Z,23.00
2023-05-04T12:18:45.471Z,23.00
2023-05-04T12:21:15.559Z,23.10
2023-05-04T12:23:43.924Z,23.30
2023-05-04T12:26:12.922Z,23.40
2023-05-04T12:28:44.052Z,23.30
2023-05-04T12:31:12.559Z,23.10
2023-05-04T12:33:41.806Z,23.20
2023-05-04T12:36:12.960Z,23.20
2023-05-04T12:38:42.487Z,23.20
2023-05-04T12:41:11.586Z,23.30
2023-05-04T12:43:42.059Z,23.30
2023-05-04T12:46:11.590Z,23.40
2023-05-04T12:48:39.930Z,23.40
2023-05-04T12:51:08.328Z,23.30
2023-05-04T12:53:36.856Z,23.30
2023-05-04T12:56:05.248Z,23.40
2023-05-04T12:58:33.442Z,23.40
2023-05-04T13:01:01.523Z,23.60
2023-05-04T13:03:31.655Z,23.50
2023-05-04T13:05:59.826Z,23.40
2023-05-04T13:08:27.894Z,23.80
2023-05-04T13:10:57.016Z,23.70
2023-05-04T13:13:28.636Z,23.80
2023-05-04T13:15:57.290Z,23.80
2023-05-04T13:18:27.531Z,23.80
2023-05-04T13:20:58.100Z,23.80
2023-05-04T13:23:26.565Z,23.60
2023-05-04T13:25:54.649Z,23.60
2023-05-04T13:28:23.986Z,23.60
2023-05-04T13:30:52.215Z,23.60
2023-05-04T13:33:29.340Z,23.70
2023-05-04T13:36:02.085Z,23.70
2023-05-04T13:38:30.322Z,23.70
2023-05-04T13:40:58.326Z,23.70
2023-05-04T13:43:26.590Z,23.60
2023-05-04T13:45:57.038Z,23.60
2023-05-04T13:48:26.889Z,23.60
2023-05-04T13:50:55.844Z,23.60
2023-05-04T13:53:25.937Z,23.70
2023-05-04T13:55:54.376Z,23.80
2023-05-04T13:58:22.766Z,23.90
2023-05-04T14:00:50.782Z,23.90
2023-05-04T14:03:20.378Z,24.10
2023-05-04T14:05:48.500Z,24.30
2023-05-04T14:08:16.493Z,24.40
2023-05-04T14:10:46.140Z,24.50
2023-05-04T14:13:14.828Z,24.60
2023-05-04T14:15:45.781Z,24.60
2023-05-04T14:18:13.978Z,24.70
2023-05-04T14:20:42.266Z,24.70
2023-05-04T14:23:10.369Z,24.70
2023-05-04T14:25:39.011Z,24.90
2023-05-04T14:28:08.727Z,24.90
2023-05-04T14:30:36.828Z,24.70
2023-05-04T14:33:07.089Z,24.70
2023-05-04T14:35:37.420Z,24.70
2023-05-04T14:38:05.563Z,24.70
2023-05-04T14:40:34.125Z,24.70
2023-05-04T14:43:02.444Z,24.60
2023-05-04T14:45:32.284Z,24.70
2023-05-04T14:48:00.588Z,24.80
2023-05-04T14:50:28.760Z,24.90
2023-05-04T14:52:56.897Z,25.00
2023-05-04T14:55:25.398Z,25.10
2023-05-04T14:57:53.535Z,25.10
2023-05-04T15:00:23.052Z,25.20
2023-05-04T15:02:55.406Z,25.00
2023-05-04T15:05:27.102Z,25.10
2023-05-04T15:07:57.635Z,25.20
2023-05-04T15:10:26.917Z,25.10
2023-05-04T15:12:56.083Z,25.00
2023-05-04T15:15:24.445Z,24.90
2023-05-04T15:17:54.369Z,24.90
2023-05-04T15:20:22.564Z,24.90
2023-05-04T15:22:53.688Z,25.10
2023-05-04T15:25:26.799Z,25.30
2023-05-04T15:27:55.067Z,25.30
2023-05-04T15:30:23.735Z,25.60
2023-05-04T15:32:53.709Z,25.50
2023-05-04T15:35:22.043Z,25.50
2023-05-04T15:37:50.267Z,25.30
2023-05-04T15:40:18.765Z,25.20
2023-05-04T15:42:52.267Z,25.10
2023-05-04T15:45:21.080Z,25.10
2023-05-04T15:47:49.416Z,25.20
2023-05-04T15:50:19.161Z,25.50
2023-05-04T15:52:47.293Z,25.50
2023-05-04T15:55:25.137Z,25.60
2023-05-04T15:57:54.223Z,25.90
2023-05-04T16:00:25.447Z,25.90
2023-05-04T16:02:53.658Z,25.90
2023-05-04T16:05:24.552Z,25.90
2023-05-04T16:07:52.892Z,25.90
2023-05-04T16:10:22.287Z,25.90
2023-05-04T16:12:50.913Z,25.70
2023-05-04T16:15:19.284Z,25.80
2023-05-04T16:17:47.585Z,25.70
2023-05-04T16:20:15.901Z,25.50
2023-05-04T16:22:45.647Z,25.40
2023-05-04T16:25:13.852Z,25.20
2023-05-04T16:27:42.083Z,25.00
2023-05-04T16:30:11.066Z,25.00
2023-05-04T16:32:39.300Z,24.90
2023-05-04T16:35:08.839Z,24.80
2023-05-04T16:37:39.375Z,24.80
2023-05-04T16:40:14.362Z,24.80
2023-05-04T16:42:42.993Z,24.70
2023-05-04T16:45:13.583Z,25.00
2023-05-04T16:47:42.472Z,25.30
2023-05-04T16:50:11.204Z,25.60
2023-05-04T16:52:39.705Z,25.90
2023-05-04T16:55:12.253Z,26.10
2023-05-04T16:57:44.167Z,26.10
2023-05-04T17:00:14.123Z,26.10
2023-05-04T17:02:45.534Z,26.10
2023-05-04T17:05:13.643Z,26.10
2023-05-04T17:07:43.301Z,26.30
2023-05-04T17:10:12.585Z,26.40
2023-05-04T17:12:43.067Z,26.40
2023-05-04T17:15:12.491Z,26.30
2023-05-04T17:17:43.406Z,26.30
2023-05-04T17:20:15.011Z,26.20
2023-05-04T17:22:46.627Z,26.30
2023-05-04T17:25:41.602Z,26.40
2023-05-04T17:28:11.356Z,26.30
2023-05-04T17:30:40.652Z,26.00
2023-05-04T17:33:09.391Z,25.90
2023-05-04T17:35:37.589Z,26.00
2023-05-04T17:38:05.893Z,26.00
2023-05-04T17:40:36.769Z,26.00
2023-05-04T17:43:04.981Z,25.80
2023-05-04T17:45:34.631Z,25.60
2023-05-04T17:48:02.929Z,25.30
2023-05-04T17:50:31.362Z,25.30
2023-05-04T17:53:02.166Z,25.20
2023-05-04T17:55:32.067Z,25.10
2023-05-04T17:58:00.338Z,25.20
2023-05-04T18:00:32.542Z,25.20
2023-05-04T18:03:06.705Z,25.20
2023-05-04T18:05:35.328Z,25.10
2023-05-04T18:08:06.762Z,25.20
2023-05-04T18:10:36.004Z,25.20
2023-05-04T18:13:04.244Z,25.00
2023-05-04T18:15:32.689Z,24.90
2023-05-04T18:18:02.610Z,24.70
2023-05-04T18:20:36.241Z,24.60
2023-05-04T18:23:06.951Z,24.40
2023-05-04T18:25:36.529Z,24.30
2023-05-04T18:28:05.018Z,24.00
2023-05-04T18:30:33.558Z,23.90
2023-05-04T18:33:03.318Z,23.70
2023-05-04T18:35:32.042Z,23.60
2023-05-04T18:38:01.648Z,23.40
2023-05-04T18:40:31.743Z,23.30
2023-05-04T18:43:06.983Z,23.10
2023-05-04T18:45:38.040Z,23.00
2023-05-04T18:48:09.565Z,22.80
2023-05-04T18:50:41.055Z,22.70
2023-05-04T18:53:09.403Z,22.60
2023-05-04T18:55:37.671Z,22.40
2023-05-04T18:58:06.385Z,22.30
2023-05-04T19:00:34.862Z,22.20
2023-05-04T19:03:03.193Z,22.20
2023-05-04T19:05:33.099Z,22.10
2023-05-04T19:08:01.404Z,22.00
2023-05-04T19:10:30.813Z,21.90
2023-05-04T19:13:00.710Z,21.80
2023-05-04T19:15:36.716Z,21.80
2023-05-04T19:18:08.793Z,21.70
2023-05-04T19:20:44.116Z,21.60
2023-05-04T19:23:12.340Z,21.60
2023-05-04T19:25:40.688Z,21.50
2023-05-04T19:28:11.892Z,21.40
2023-05-04T19:30:42.639Z,21.20
2023-05-04T19:33:12.151Z,21.20
2023-05-04T19:35:44.837Z,21.20
2023-05-04T19:38:17.801Z,21.10
2023-05-04T19:40:57.262Z,21.10
2023-05-04T19:43:25.639Z,21.10
2023-05-04T19:45:57.325Z,21.00
2023-05-04T19:48:27.997Z,21.00
2023-05-04T19:50:59.725Z,21.10
2023-05-04T19:53:28.191Z,21.20
2023-05-04T19:55:58.459Z,21.10
2023-05-04T19:58:30.908Z,20.90
2023-05-04T20:01:02.747Z,20.90
2023-05-04T20:03:33.381Z,20.90
2023-05-04T20:06:03.636Z,20.90
2023-05-04T20:08:31.985Z,20.90
2023-05-04T20:11:00.935Z,20.90
2023-05-04T20:13:29.248Z,20.90
2023-05-04T20:15:58.166Z,20.80
2023-05-04T20:18:27.165Z,20.80
2023-05-04T20:20:56.761Z,20.70
2023-05-04T20:23:26.666Z,20.70
2023-05-04T20:25:55.182Z,20.60
2023-05-04T20:28:24.967Z,20.60
2023-05-04T20:30:55.411Z,20.60
2023-05-04T20:33:23.764Z,20.50
2023-05-04T20:35:52.797Z,20.50
2023-05-04T20:38:44.172Z,20.40
2023-05-04T20:41:15.628Z,20.40
2023-05-04T20:43:43.991Z,20.40
2023-05-04T20:46:17.970Z,20.30
2023-05-04T20:48:46.487Z,20.30
2023-05-04T20:51:15.537Z,20.30
2023-05-04T20:53:45.828Z,20.30
2023-05-04T20:56:15.685Z,20.30
2023-05-04T20:58:44.291Z,20.30
2023-05-04T21:01:15.314Z,20.30
2023-05-04T21:03:43.903Z,20.20
2023-05-04T21:06:12.602Z,20.30
2023-05-04T21:08:41.591Z,20.30
2023-05-04T21:11:11.294Z,20.30
2023-05-04T21:13:39.901Z,20.40
2023-05-04T21:16:13.866Z,20.30
2023-05-04T21:18:42.708Z,20.20
2023-05-04T21:21:11.154Z,20.20
2023-05-04T21:23:39.306Z,20.00
2023-05-04T21:26:07.825Z,20.00
2023-05-04T21:28:38.594Z,20.00
2023-05-04T21:31:08.605Z,20.00
2023-05-04T21:33:36.842Z,20.00
2023-05-04T21:36:15.102Z,19.90
2023-05-04T21:38:46.168Z,19.80
2023-05-04T21:41:17.799Z,19.70
2023-05-04T21:43:47.488Z,19.60
2023-05-04T21:46:15.779Z,19.60
2023-05-04T21:48:44.136Z,19.70
2023-05-04T21:51:12.656Z,19.70
2023-05-04T21:53:43.921Z,19.70
2023-05-04T21:56:12.711Z,19.70
2023-05-04T21:58:42.228Z,19.80
2023-05-04T22:01:17.056Z,19.70
2023-05-04T22:03:45.673Z,19.80
2023-05-04T22:06:14.239Z,19.80
2023-05-04T22:08:42.725Z,19.80
2023-05-04T22:11:11.139Z,19.80
2023-05-04T22:13:39.398Z,19.70
2023-05-04T22:16:09.872Z,19.60
2023-05-04T22:18:39.803Z,19.60
2023-05-04T22:21:08.028Z,19.60
2023-05-04T22:23:36.539Z,19.50
2023-05-04T22:26:04.829Z,19.40
2023-05-04T22:28:33.400Z,19.40
2023-05-04T22:31:01.563Z,19.30
2023-05-04T22:33:29.826Z,19.20
2023-05-04T22:35:59.614Z,19.20
2023-05-04T22:38:33.620Z,19.20
2023-05-04T22:41:03.553Z,19.20
2023-05-04T22:43:32.134Z,19.10
2023-05-04T22:46:01.848Z,19.10
2023-05-04T22:48:30.312Z,19.10
2023-05-04T22:51:02.202Z,19.10
2023-05-04T22:53:30.385Z,19.30
2023-05-04T22:55:58.457Z,19.20
2023-05-04T22:58:29.661Z,19.10
2023-05-04T23:00:58.239Z,19.10
2023-05-04T23:03:26.984Z,19.20
2023-05-04T23:05:55.547Z,19.10
2023-05-04T23:08:26.484Z,19.10
2023-05-04T23:10:54.957Z,19.10
2023-05-04T23:13:24.738Z,19.10
2023-05-04T23:15:53.419Z,19.10
2023-05-04T23:18:21.809Z,19.00
2023-05-04T23:20:50.165Z,19.00
2023-05-04T23:23:19.940Z,18.90
2023-05-04T23:25:49.645Z,18.90
2023-05-04T23:28:18.328Z,18.90
2023-05-04T23:30:46.527Z,18.90
2023-05-04T23:33:17.939Z,18.80
2023-05-04T23:35:46.087Z,18.70
2023-05-04T23:38:14.412Z,18.50
2023-05-04T23:40:45.726Z,18.30
2023-05-04T23:43:15.537Z,18.20
2023-05-04T23:45:43.826Z,18.10
2023-05-04T23:48:12.241Z,17.90
2023-05-04T23:50:42.496Z,17.70
2023-05-04T23:53:10.803Z,17.70
2023-05-04T23:55:38.921Z,17.60
2023-05-04T23:58:07.109Z,17.50
